createdAt,value
2023-04-20T00:00:07.838Z,6.04
2023-04-20T00:00:45.358Z,6.06
2023-04-20T00:01:39.311Z,6.03
2023-04-20T00:03:18.066Z,6.04
2023-04-20T00:04:00.459Z,6.00
2023-04-20T00:07:06.686Z,5.85
2023-04-20T00:07:28.466Z,5.81
2023-04-20T00:08:28.512Z,5.74
2023-04-20T00:09:32.209Z,5.65
2023-04-20T00:10:31.073Z,5.61
2023-04-20T00:11:52.689Z,5.61
2023-04-20T00:12:38.704Z,5.64
2023-04-20T00:13:38.714Z,5.71
2023-04-20T00:16:58.194Z,5.78
2023-04-20T00:19:51.958Z,5.82
2023-04-20T00:25:07.403Z,5.76
2023-04-20T00:26:14.865Z,5.71
2023-04-20T00:27:08.292Z,5.67
2023-04-20T00:28:14.818Z,5.61
2023-04-20T00:33:04.453Z,5.28
2023-04-20T00:34:05.376Z,5.25
2023-04-20T00:36:55.860Z,5.24
2023-04-20T00:37:17.175Z,5.24
2023-04-20T00:38:17.173Z,5.27
2023-04-20T00:40:27.256Z,5.35
2023-04-20T00:41:28.277Z,5.36
2023-04-20T00:42:28.253Z,5.39
2023-04-20T00:43:45.001Z,5.42
2023-04-20T00:44:30.873Z,5.46
2023-04-20T00:49:38.586Z,5.43
2023-04-20T00:50:39.465Z,5.31
2023-04-20T00:52:21.553Z,5.21
2023-04-20T00:52:46.609Z,5.13
2023-04-20T00:54:12.056Z,5.06
2023-04-20T00:54:39.317Z,4.94
2023-04-20T00:56:41.559Z,4.86
2023-04-20T01:01:44.555Z,4.69
2023-04-20T01:03:07.040Z,4.72
2023-04-20T01:03:54.176Z,4.73
2023-04-20T01:15:40.363Z,5.03
2023-04-20T01:16:14.389Z,5.04
2023-04-20T01:18:35.218Z,5.02
2023-04-20T01:19:03.317Z,5.03
2023-04-20T01:20:21.258Z,5.03
2023-04-20T01:21:03.318Z,5.06
2023-04-20T01:22:03.610Z,5.06
2023-04-20T01:23:18.162Z,5.04
2023-04-20T01:24:03.308Z,5.06
2023-04-20T01:25:03.256Z,5.04
2023-04-20T01:26:03.318Z,5.04
2023-04-20T01:32:12.474Z,5.02
2023-04-20T01:33:14.336Z,4.91
2023-04-20T01:37:48.705Z,4.70
2023-04-20T01:40:30.319Z,4.75
2023-04-20T01:41:17.848Z,4.72
2023-04-20T01:45:59.633Z,4.70
2023-04-20T01:47:00.753Z,4.69
2023-04-20T01:48:37.198Z,4.63
2023-04-20T01:50:11.230Z,4.52
2023-04-20T01:51:12.214Z,4.47
2023-04-20T01:52:47.738Z,4.41
2023-04-20T01:53:12.157Z,4.34
2023-04-20T01:54:12.156Z,4.30
2023-04-20T01:55:12.110Z,4.29
2023-04-20T01:57:08.247Z,4.23
2023-04-20T01:57:47.862Z,4.26
2023-04-20T02:00:43.290Z,4.23
2023-04-20T02:04:37.570Z,4.26
2023-04-20T02:06:42.055Z,4.24
2023-04-20T02:08:17.721Z,4.24
2023-04-20T02:12:26.295Z,4.18
2023-04-20T02:13:18.748Z,4.14
2023-04-20T02:16:46.847Z,4.11
2023-04-20T02:17:28.514Z,4.09
2023-04-20T02:18:50.187Z,4.11
2023-04-20T02:24:00.602Z,4.18
2023-04-20T02:33:23.858Z,3.93
2023-04-20T02:33:39.408Z,3.91
2023-04-20T02:36:26.137Z,3.90
2023-04-20T02:41:30.496Z,3.70
2023-04-20T02:42:42.069Z,3.69
2023-04-20T02:43:59.056Z,3.69
2023-04-20T02:47:05.170Z,3.60
2023-04-20T02:48:25.166Z,3.62
2023-04-20T02:51:53.220Z,3.69
2023-04-20T02:54:21.806Z,3.78
2023-04-20T02:57:10.252Z,3.75
2023-04-20T02:59:36.124Z,3.76
2023-04-20T03:03:39.499Z,3.80
2023-04-20T03:07:03.469Z,3.51
2023-04-20T03:10:48.108Z,3.20
2023-04-20T03:11:49.153Z,3.18
2023-04-20T03:13:59.885Z,3.23
2023-04-20T03:15:39.417Z,3.32
2023-04-20T03:22:54.826Z,3.68
2023-04-20T03:23:16.824Z,3.73
2023-04-20T03:25:26.901Z,3.75
2023-04-20T03:25:58.789Z,3.73
2023-04-20T03:26:59.433Z,3.73
2023-04-20T03:28:09.469Z,3.68
2023-04-20T03:28:58.283Z,3.65
2023-04-20T03:32:32.645Z,3.39
2023-04-20T03:33:35.242Z,3.26
2023-04-20T03:34:45.474Z,3.18
2023-04-20T03:35:30.622Z,3.11
2023-04-20T03:36:19.973Z,3.03
2023-04-20T03:37:20.002Z,2.95
2023-04-20T03:38:22.232Z,2.85
2023-04-20T03:39:20.290Z,2.81
2023-04-20T03:40:19.936Z,2.87
2023-04-20T03:41:19.938Z,2.95
2023-04-20T03:43:19.174Z,3.05
2023-04-20T03:44:39.437Z,3.21
2023-04-20T03:45:35.387Z,3.28
2023-04-20T03:46:35.326Z,3.32
2023-04-20T03:47:35.331Z,3.39
2023-04-20T03:54:06.423Z,3.50
2023-04-20T03:55:21.944Z,3.54
2023-04-20T03:56:39.605Z,3.55
2023-04-20T03:57:35.522Z,3.60
2023-04-20T04:03:09.788Z,3.60
2023-04-20T04:04:10.768Z,3.58
2023-04-20T04:09:58.119Z,3.51
2023-04-20T04:13:18.947Z,3.43
2023-04-20T04:13:55.827Z,3.39
2023-04-20T04:14:27.345Z,3.35
2023-04-20T04:15:26.806Z,3.33
2023-04-20T04:16:27.663Z,3.32
2023-04-20T04:17:26.325Z,3.29
2023-04-20T04:18:29.262Z,3.29
2023-04-20T04:19:33.889Z,3.21
2023-04-20T04:20:26.840Z,3.14
2023-04-20T04:21:26.284Z,3.03
2023-04-20T04:22:28.571Z,2.93
2023-04-20T04:23:27.870Z,2.87
2023-04-20T04:24:43.894Z,2.89
2023-04-20T04:25:57.838Z,2.87
2023-04-20T04:26:38.910Z,2.84
2023-04-20T04:27:47.184Z,2.89
2023-04-20T04:28:26.225Z,2.93
2023-04-20T04:29:26.165Z,2.96
2023-04-20T04:30:26.121Z,3.00
2023-04-20T04:31:26.208Z,3.06
2023-04-20T04:33:27.321Z,3.10
2023-04-20T04:33:39.391Z,3.10
2023-04-20T04:34:37.418Z,3.08
2023-04-20T04:35:45.451Z,3.05
2023-04-20T04:37:10.824Z,2.97
2023-04-20T04:38:37.091Z,2.99
2023-04-20T04:39:38.075Z,2.95
2023-04-20T04:42:58.975Z,2.85
2023-04-20T04:43:59.322Z,2.79
2023-04-20T04:46:15.079Z,2.81
2023-04-20T04:47:10.615Z,2.81
2023-04-20T04:48:10.657Z,2.85
2023-04-20T04:51:50.664Z,3.05
2023-04-20T04:52:54.384Z,3.06
2023-04-20T04:53:42.190Z,3.10
2023-04-20T04:54:51.446Z,3.13
2023-04-20T04:55:57.620Z,3.18
2023-04-20T05:02:03.751Z,3.40
2023-04-20T05:02:37.810Z,3.39
2023-04-20T05:05:49.832Z,3.26
2023-04-20T05:06:48.210Z,3.15
2023-04-20T05:09:20.673Z,3.05
2023-04-20T05:10:32.940Z,3.00
2023-04-20T05:11:03.425Z,2.99
2023-04-20T05:12:24.413Z,2.96
2023-04-20T05:13:13.940Z,2.96
2023-04-20T05:18:30.808Z,3.15
2023-04-20T05:19:31.675Z,3.20
2023-04-20T05:20:47.328Z,3.26
2023-04-20T05:28:38.417Z,3.43
2023-04-20T05:29:47.886Z,3.43
2023-04-20T05:30:54.841Z,3.45
2023-04-20T05:34:27.227Z,3.48
2023-04-20T05:34:59.997Z,3.54
2023-04-20T05:35:59.977Z,3.52
2023-04-20T05:38:32.887Z,3.61
2023-04-20T05:39:32.295Z,3.62
2023-04-20T05:43:37.734Z,3.72
2023-04-20T05:44:11.204Z,3.73
2023-04-20T05:45:12.161Z,3.78
2023-04-20T05:47:15.895Z,3.84
2023-04-20T05:49:46.520Z,3.87
2023-04-20T05:50:17.902Z,3.90
2023-04-20T05:51:06.798Z,3.96
2023-04-20T05:52:06.944Z,4.04
2023-04-20T05:53:09.506Z,4.09
2023-04-20T05:55:04.013Z,4.14
2023-04-20T05:56:20.506Z,4.26
2023-04-20T06:00:55.986Z,4.45
2023-04-20T06:02:55.561Z,4.52
2023-04-20T06:03:37.501Z,4.59
2023-04-20T06:05:16.437Z,4.65
2023-04-20T06:06:47.310Z,4.70
2023-04-20T06:07:58.652Z,4.75
2023-04-20T06:10:25.882Z,4.89
2023-04-20T06:11:49.379Z,4.97
2023-04-20T06:12:27.256Z,5.00
2023-04-20T06:13:20.615Z,5.07
2023-04-20T06:16:46.340Z,5.21
2023-04-20T06:17:54.400Z,5.24
2023-04-20T06:18:51.849Z,5.27
2023-04-20T06:19:47.331Z,5.28
2023-04-20T06:20:59.049Z,5.35
2023-04-20T06:22:01.446Z,5.36
2023-04-20T06:22:44.396Z,5.33
2023-04-20T06:23:43.473Z,5.40
2023-04-20T06:25:16.871Z,5.46
2023-04-20T06:25:50.824Z,5.45
2023-04-20T06:27:19.225Z,5.46
2023-04-20T06:27:43.382Z,5.46
2023-04-20T06:28:43.803Z,5.49
2023-04-20T06:29:43.353Z,5.51
2023-04-20T06:30:54.316Z,5.53
2023-04-20T06:32:27.915Z,5.51
2023-04-20T06:32:58.236Z,5.53
2023-04-20T06:33:43.330Z,5.56
2023-04-20T06:34:51.822Z,5.56
2023-04-20T06:35:50.213Z,5.57
2023-04-20T06:36:44.330Z,5.63
2023-04-20T06:37:43.261Z,5.67
2023-04-20T06:38:43.262Z,5.72
2023-04-20T06:39:50.845Z,5.72
2023-04-20T06:40:43.265Z,5.68
2023-04-20T06:41:43.253Z,5.71
2023-04-20T06:42:43.175Z,5.71
2023-04-20T06:43:43.202Z,5.72
2023-04-20T06:44:43.122Z,5.72
2023-04-20T06:45:43.129Z,5.79
2023-04-20T06:46:43.179Z,5.81
2023-04-20T06:47:46.325Z,5.82
2023-04-20T06:48:43.095Z,5.78
2023-04-20T06:49:56.353Z,5.78
2023-04-20T06:50:43.070Z,5.76
2023-04-20T06:51:43.133Z,5.76
2023-04-20T06:52:43.025Z,5.79
2023-04-20T06:53:45.445Z,5.78
2023-04-20T06:54:43.056Z,5.83
2023-04-20T06:55:43.086Z,5.85
2023-04-20T06:56:42.954Z,5.91
2023-04-20T06:57:48.094Z,5.91
2023-04-20T06:58:42.937Z,6.00
2023-04-20T07:00:03.937Z,6.00
2023-04-20T07:00:42.892Z,6.04
2023-04-20T07:01:43.068Z,6.03
2023-04-20T07:02:43.026Z,6.12
2023-04-20T07:03:43.106Z,6.12
2023-04-20T07:04:43.004Z,6.12
2023-04-20T07:05:42.866Z,6.12
2023-04-20T07:06:42.850Z,6.17
2023-04-20T07:07:42.821Z,6.21
2023-04-20T07:08:42.830Z,6.28
2023-04-20T07:09:50.915Z,6.27
2023-04-20T07:10:42.864Z,6.34
2023-04-20T07:11:42.798Z,6.36
2023-04-20T07:12:45.325Z,6.34
2023-04-20T07:13:42.829Z,6.31
2023-04-20T07:14:42.772Z,6.40
2023-04-20T07:15:42.745Z,6.48
2023-04-20T07:16:52.369Z,6.55
2023-04-20T07:18:03.848Z,6.59
2023-04-20T07:19:14.233Z,6.56
2023-04-20T07:19:42.769Z,6.54
2023-04-20T07:20:42.696Z,6.52
2023-04-20T07:21:42.652Z,6.58
2023-04-20T07:22:46.316Z,6.61
2023-04-20T07:23:44.800Z,6.69
2023-04-20T07:24:54.824Z,6.77
2023-04-20T07:26:27.816Z,6.87
2023-04-20T07:27:07.833Z,6.89
2023-04-20T07:27:42.626Z,6.91
2023-04-20T07:28:42.544Z,6.91
2023-04-20T07:29:42.627Z,6.99
2023-04-20T07:30:42.595Z,7.07
2023-04-20T07:31:42.724Z,7.06
2023-04-20T07:32:42.601Z,7.06
2023-04-20T07:33:49.210Z,7.12
2023-04-20T07:34:42.493Z,7.15
2023-04-20T07:35:42.526Z,7.16
2023-04-20T07:36:42.451Z,7.24
2023-04-20T07:37:42.552Z,7.34
2023-04-20T07:38:42.415Z,7.45
2023-04-20T07:39:42.442Z,7.53
2023-04-20T07:40:42.398Z,7.64
2023-04-20T07:43:26.688Z,7.77
2023-04-20T07:43:55.396Z,7.68
2023-04-20T07:45:10.210Z,7.71
2023-04-20T07:46:17.754Z,7.77
2023-04-20T07:47:02.966Z,7.92
2023-04-20T07:47:54.623Z,8.04
2023-04-20T07:48:53.472Z,7.97
2023-04-20T07:49:54.179Z,7.92
2023-04-20T07:50:53.416Z,8.00
2023-04-20T07:52:09.587Z,7.95
2023-04-20T07:55:05.690Z,8.05
2023-04-20T07:56:13.566Z,8.26
2023-04-20T07:57:06.605Z,8.43
2023-04-20T07:58:07.471Z,8.55
2023-04-20T07:59:06.654Z,8.58
2023-04-20T08:00:06.623Z,8.55
2023-04-20T08:01:06.581Z,8.44
2023-04-20T08:02:14.121Z,8.45
2023-04-20T08:06:42.853Z,8.59
2023-04-20T08:07:40.740Z,8.63
2023-04-20T08:08:42.564Z,8.62
2023-04-20T08:11:00.296Z,8.65
2023-04-20T08:12:14.666Z,8.58
2023-04-20T08:13:04.348Z,8.63
2023-04-20T08:14:00.392Z,8.66
2023-04-20T08:15:13.814Z,8.59
2023-04-20T08:15:59.736Z,8.59
2023-04-20T08:17:17.368Z,8.73
2023-04-20T08:18:37.796Z,8.84
2023-04-20T08:19:59.692Z,9.04
2023-04-20T08:21:30.242Z,9.02
2023-04-20T08:22:00.717Z,9.01
2023-04-20T08:22:59.594Z,9.02
2023-04-20T08:23:59.756Z,9.08
2023-04-20T08:25:00.292Z,9.14
2023-04-20T08:25:59.642Z,9.18
2023-04-20T08:26:59.563Z,9.21
2023-04-20T08:27:59.678Z,9.20
2023-04-20T08:28:59.565Z,9.24
2023-04-20T08:30:39.804Z,9.23
2023-04-20T08:30:59.531Z,9.28
2023-04-20T08:32:14.202Z,9.24
2023-04-20T08:32:59.575Z,9.18
2023-04-20T08:34:23.737Z,9.31
2023-04-20T08:35:14.354Z,9.32
2023-04-20T08:35:59.432Z,9.31
2023-04-20T08:36:59.407Z,9.23
2023-04-20T08:38:00.344Z,9.15
2023-04-20T08:39:01.315Z,9.24
2023-04-20T08:39:59.491Z,9.46
2023-04-20T08:41:00.311Z,9.51
2023-04-20T08:42:02.780Z,9.66
2023-04-20T08:43:00.628Z,9.74
2023-04-20T08:44:35.746Z,9.69
2023-04-20T08:45:23.816Z,9.71
2023-04-20T08:46:16.898Z,9.81
2023-04-20T08:48:25.082Z,9.84
2023-04-20T08:49:11.274Z,9.84
2023-04-20T08:50:17.618Z,9.84
2023-04-20T08:51:11.289Z,9.86
2023-04-20T08:52:23.998Z,9.93
2023-04-20T08:53:14.498Z,10.01
2023-04-20T08:54:55.249Z,10.23
2023-04-20T08:56:36.485Z,10.51
2023-04-20T08:57:37.522Z,10.52
2023-04-20T08:58:24.510Z,10.41
2023-04-20T08:59:47.536Z,10.27
2023-04-20T09:00:48.652Z,10.32
2023-04-20T09:01:35.540Z,10.34
2023-04-20T09:02:23.365Z,10.36
2023-04-20T09:03:32.736Z,10.45
2023-04-20T09:04:24.949Z,10.52
2023-04-20T09:05:23.204Z,10.64
2023-04-20T09:06:23.476Z,10.71
2023-04-20T09:07:47.022Z,10.68
2023-04-20T09:08:23.004Z,10.74
2023-04-20T09:09:29.524Z,10.92
2023-04-20T09:10:52.018Z,10.89
2023-04-20T09:11:22.942Z,11.03
2023-04-20T09:12:23.067Z,11.15
2023-04-20T09:13:54.065Z,11.32
2023-04-20T09:14:36.063Z,11.21
2023-04-20T09:16:36.806Z,10.74
2023-04-20T09:18:01.775Z,10.81
2023-04-20T09:21:45.698Z,11.15
2023-04-20T09:23:20.666Z,11.29
2023-04-20T09:23:59.572Z,11.55
2023-04-20T09:25:36.146Z,11.96
2023-04-20T09:26:37.123Z,11.98
2023-04-20T09:30:08.495Z,11.61
2023-04-20T09:32:06.209Z,11.39
2023-04-20T09:38:48.614Z,11.78
2023-04-20T09:39:37.959Z,11.86
2023-04-20T09:40:23.147Z,11.70
2023-04-20T09:41:30.047Z,11.70
2023-04-20T09:43:39.844Z,11.99
2023-04-20T09:44:32.371Z,11.78
2023-04-20T09:46:10.973Z,11.67
2023-04-20T09:46:48.710Z,11.57
2023-04-20T09:47:30.424Z,11.52
2023-04-20T09:48:39.925Z,11.76
2023-04-20T09:50:26.673Z,12.09
2023-04-20T09:51:21.916Z,12.31
2023-04-20T09:51:58.904Z,12.49
2023-04-20T09:53:04.010Z,12.60
2023-04-20T09:53:55.456Z,12.65
2023-04-20T09:54:53.981Z,12.83
2023-04-20T09:55:58.872Z,12.83
2023-04-20T09:56:59.859Z,12.54
2023-04-20T09:58:40.883Z,12.05
2023-04-20T09:59:40.717Z,11.82
2023-04-20T10:00:40.689Z,11.54
2023-04-20T10:02:55.659Z,11.15
2023-04-20T10:03:59.285Z,11.02
2023-04-20T10:05:27.938Z,10.86
2023-04-20T10:09:32.353Z,10.52
2023-04-20T10:10:36.906Z,10.63
2023-04-20T10:11:45.145Z,10.82
2023-04-20T10:12:33.188Z,11.11
2023-04-20T10:13:48.720Z,11.15
2023-04-20T10:14:33.171Z,11.11
2023-04-20T10:15:33.146Z,11.06
2023-04-20T10:16:33.169Z,10.96
2023-04-20T10:17:38.450Z,10.89
2023-04-20T10:18:46.950Z,10.92
2023-04-20T10:19:49.497Z,11.03
2023-04-20T10:21:09.934Z,11.09
2023-04-20T10:26:34.728Z,11.09
2023-04-20T10:28:34.413Z,11.00
2023-04-20T10:29:39.182Z,10.96
2023-04-20T10:30:34.828Z,10.94
2023-04-20T10:33:05.814Z,10.84
2023-04-20T10:37:17.044Z,10.64
2023-04-20T10:38:48.605Z,10.70
2023-04-20T10:39:31.435Z,10.79
2023-04-20T10:40:16.861Z,10.88
2023-04-20T10:41:27.063Z,10.92
2023-04-20T10:43:45.574Z,11.03
2023-04-20T10:44:58.609Z,11.04
2023-04-20T10:47:06.701Z,11.04
2023-04-20T10:47:41.831Z,11.03
2023-04-20T10:49:04.258Z,11.03
2023-04-20T10:49:56.223Z,11.07
2023-04-20T10:50:40.228Z,11.10
2023-04-20T10:54:41.945Z,11.09
2023-04-20T10:55:56.386Z,11.07
2023-04-20T10:58:05.980Z,11.07
2023-04-20T11:02:01.735Z,10.97
2023-04-20T11:03:09.954Z,11.00
2023-04-20T11:05:20.510Z,11.10
2023-04-20T11:06:37.671Z,11.11
2023-04-20T11:07:37.102Z,11.10
2023-04-20T11:09:53.305Z,11.03
2023-04-20T11:11:51.950Z,11.07
2023-04-20T11:13:08.373Z,11.06
2023-04-20T11:16:18.867Z,11.17
2023-04-20T11:17:46.129Z,11.17
2023-04-20T11:18:14.872Z,11.18
2023-04-20T11:20:39.200Z,11.25
2023-04-20T11:21:24.694Z,11.25
2023-04-20T11:22:42.736Z,11.27
2023-04-20T11:23:22.188Z,11.33
2023-04-20T11:24:22.783Z,11.39
2023-04-20T11:25:41.125Z,11.40
2023-04-20T11:26:39.134Z,11.42
2023-04-20T11:29:37.635Z,11.42
2023-04-20T11:29:42.805Z,11.33
2023-04-20T11:31:17.338Z,11.28
2023-04-20T11:34:02.254Z,11.21
2023-04-20T11:35:06.923Z,11.21
2023-04-20T11:37:20.578Z,11.17
2023-04-20T11:40:04.676Z,11.07
2023-04-20T11:40:53.688Z,11.07
2023-04-20T11:44:58.927Z,10.92
2023-04-20T11:47:51.707Z,10.53
2023-04-20T11:48:45.944Z,10.42
2023-04-20T11:49:46.559Z,10.32
2023-04-20T11:50:45.774Z,10.23
2023-04-20T11:51:48.399Z,10.25
2023-04-20T11:56:23.149Z,10.09
2023-04-20T11:57:21.580Z,10.12
2023-04-20T11:58:14.643Z,10.14
2023-04-20T12:00:28.147Z,10.05
2023-04-20T12:01:58.170Z,10.02
2023-04-20T12:02:22.368Z,10.02
2023-04-20T12:04:11.257Z,10.02
2023-04-20T12:04:24.497Z,10.04
2023-04-20T12:05:28.236Z,10.05
2023-04-20T12:06:58.660Z,10.05
2023-04-20T12:07:43.211Z,10.02
2023-04-20T12:08:33.589Z,10.07
2023-04-20T12:09:50.192Z,10.08
2023-04-20T12:10:24.676Z,10.02
2023-04-20T12:14:07.310Z,9.94
2023-04-20T12:14:26.864Z,10.01
2023-04-20T12:16:30.386Z,10.05
2023-04-20T12:17:31.327Z,10.05
2023-04-20T12:18:45.843Z,10.09
2023-04-20T12:20:00.894Z,10.12
2023-04-20T12:20:59.405Z,10.12
2023-04-20T12:22:50.273Z,10.15
2023-04-20T12:24:12.356Z,10.18
2023-04-20T12:24:43.034Z,10.23
2023-04-20T12:25:49.399Z,10.26
2023-04-20T12:26:45.530Z,10.27
2023-04-20T12:27:50.454Z,10.30
2023-04-20T12:29:21.063Z,10.34
2023-04-20T12:30:16.443Z,10.40
2023-04-20T12:30:54.557Z,10.44
2023-04-20T12:34:10.178Z,10.59
2023-04-20T12:36:38.198Z,10.66
2023-04-20T12:36:57.061Z,10.67
2023-04-20T12:37:57.929Z,10.70
2023-04-20T12:38:57.107Z,10.74
2023-04-20T12:40:04.770Z,10.76
2023-04-20T12:42:07.150Z,10.81
2023-04-20T12:43:08.174Z,10.82
2023-04-20T12:44:11.458Z,10.82
2023-04-20T12:45:49.347Z,10.76
2023-04-20T12:46:17.834Z,10.71
2023-04-20T12:47:19.790Z,10.68
2023-04-20T12:48:09.779Z,10.67
2023-04-20T12:49:25.253Z,10.67
2023-04-20T12:50:08.588Z,10.68
2023-04-20T12:51:08.089Z,10.68
2023-04-20T12:52:14.825Z,10.68
2023-04-20T12:53:08.776Z,10.70
2023-04-20T12:56:16.031Z,10.71
2023-04-20T12:58:24.103Z,10.73
2023-04-20T12:58:35.097Z,10.71
2023-04-20T12:59:40.061Z,10.67
2023-04-20T13:00:45.137Z,10.66
2023-04-20T13:01:32.065Z,10.67
2023-04-20T13:02:59.804Z,10.66
2023-04-20T13:03:29.614Z,10.64
2023-04-20T13:04:29.533Z,10.64
2023-04-20T13:05:29.440Z,10.64
2023-04-20T13:06:32.086Z,10.61
2023-04-20T13:07:35.575Z,10.60
2023-04-20T13:08:39.564Z,10.61
2023-04-20T13:09:47.115Z,10.56
2023-04-20T13:10:51.114Z,10.56
2023-04-20T13:11:30.850Z,10.55
2023-04-20T13:12:29.249Z,10.56
2023-04-20T13:13:29.336Z,10.53
2023-04-20T13:14:29.287Z,10.45
2023-04-20T13:17:24.145Z,10.36
2023-04-20T13:18:19.980Z,10.33
2023-04-20T13:20:16.715Z,10.26
2023-04-20T13:22:27.787Z,10.22
2023-04-20T13:25:07.987Z,10.14
2023-04-20T13:26:09.788Z,10.09
2023-04-20T13:27:12.283Z,10.05
2023-04-20T13:28:08.809Z,10.01
2023-04-20T13:30:20.911Z,9.93
2023-04-20T13:31:23.375Z,9.91
2023-04-20T13:32:48.272Z,9.90
2023-04-20T13:33:34.709Z,9.86
2023-04-20T13:34:46.766Z,9.83
2023-04-20T13:35:19.539Z,9.84
2023-04-20T13:37:08.722Z,9.87
2023-04-20T13:37:40.503Z,9.89
2023-04-20T13:38:19.530Z,9.90
2023-04-20T13:39:19.575Z,9.90
2023-04-20T13:40:19.513Z,9.89
2023-04-20T13:41:19.471Z,9.90
2023-04-20T13:42:22.964Z,9.90
2023-04-20T13:43:21.454Z,9.89
2023-04-20T13:44:19.798Z,9.87
2023-04-20T13:45:19.450Z,9.83
2023-04-20T13:46:43.333Z,9.83
2023-04-20T13:47:24.917Z,9.84
2023-04-20T13:48:25.090Z,9.84
2023-04-20T13:50:29.681Z,9.86
2023-04-20T13:51:30.589Z,9.86
2023-04-20T13:52:32.624Z,9.79
2023-04-20T13:53:30.454Z,9.74
2023-04-20T13:54:34.629Z,9.69
2023-04-20T13:55:36.352Z,9.60
2023-04-20T13:56:35.125Z,9.51
2023-04-20T13:57:43.139Z,9.50
2023-04-20T13:58:34.128Z,9.48
2023-04-20T13:59:54.003Z,9.46
2023-04-20T14:00:30.452Z,9.46
2023-04-20T14:01:30.342Z,9.47
2023-04-20T14:02:38.737Z,9.46
2023-04-20T14:03:32.296Z,9.40
2023-04-20T14:05:09.173Z,9.38
2023-04-20T14:05:32.633Z,9.33
2023-04-20T14:06:35.133Z,9.31
2023-04-20T14:07:50.632Z,9.31
2023-04-20T14:08:30.217Z,9.29
2023-04-20T14:09:35.583Z,9.24
2023-04-20T14:10:42.624Z,9.26
2023-04-20T14:11:31.058Z,9.29
2023-04-20T14:16:22.239Z,9.18
2023-04-20T14:17:05.179Z,9.18
2023-04-20T14:17:56.695Z,9.20
2023-04-20T14:19:58.477Z,9.18
2023-04-20T14:20:59.394Z,9.17
2023-04-20T14:21:59.448Z,9.14
2023-04-20T14:22:59.410Z,9.15
2023-04-20T14:24:01.049Z,9.17
2023-04-20T14:24:59.297Z,9.17
2023-04-20T14:25:59.444Z,9.15
2023-04-20T14:27:24.060Z,9.15
2023-04-20T14:28:10.482Z,9.15
2023-04-20T14:29:02.556Z,9.14
2023-04-20T14:30:26.563Z,9.10
2023-04-20T14:31:16.106Z,9.04
2023-04-20T14:32:20.224Z,9.04
2023-04-20T14:34:24.012Z,8.94
2023-04-20T14:35:21.295Z,8.86
2023-04-20T14:36:21.290Z,8.83
2023-04-20T14:37:21.245Z,8.79
2023-04-20T14:38:21.367Z,8.73
2023-04-20T14:39:21.373Z,8.73
2023-04-20T14:40:26.993Z,8.71
2023-04-20T14:41:40.590Z,8.74
2023-04-20T14:42:43.930Z,8.76
2023-04-20T14:43:40.496Z,8.74
2023-04-20T14:44:23.492Z,8.71
2023-04-20T14:45:55.163Z,8.68
2023-04-20T14:46:35.418Z,8.73
2023-04-20T14:47:23.982Z,8.74
2023-04-20T14:48:44.920Z,8.73
2023-04-20T14:49:21.174Z,8.70
2023-04-20T14:50:21.995Z,8.66
2023-04-20T14:51:35.767Z,8.65
2023-04-20T14:53:35.174Z,8.65
2023-04-20T14:54:56.604Z,8.66
2023-04-20T14:55:39.852Z,8.68
2023-04-20T14:56:34.831Z,8.65
2023-04-20T14:57:55.374Z,8.68
2023-04-20T14:58:39.966Z,8.71
2023-04-20T14:59:56.103Z,8.71
2023-04-20T15:00:38.868Z,8.76
2023-04-20T15:02:03.148Z,8.77
2023-04-20T15:02:54.437Z,8.76
2023-04-20T15:03:36.121Z,8.76
2023-04-20T15:04:35.794Z,8.73
2023-04-20T15:05:32.227Z,8.73
2023-04-20T15:06:31.980Z,8.73
2023-04-20T15:07:31.956Z,8.74
2023-04-20T15:08:31.970Z,8.74
2023-04-20T15:09:33.412Z,8.74
2023-04-20T15:11:04.285Z,8.73
2023-04-20T15:11:37.277Z,8.76
2023-04-20T15:12:34.705Z,8.80
2023-04-20T15:13:47.601Z,8.84
2023-04-20T15:14:31.901Z,8.86
2023-04-20T15:15:48.175Z,8.86
2023-04-20T15:18:10.657Z,8.89
2023-04-20T15:21:54.824Z,8.89
2023-04-20T15:23:11.472Z,8.86
2023-04-20T15:24:15.985Z,8.91
2023-04-20T15:25:02.898Z,8.92
2023-04-20T15:26:04.728Z,8.92
2023-04-20T15:26:55.313Z,8.92
2023-04-20T15:27:54.163Z,8.89
2023-04-20T15:30:10.421Z,8.91
2023-04-20T15:31:10.481Z,8.94
2023-04-20T15:32:08.461Z,8.95
2023-04-20T15:33:10.025Z,8.96
2023-04-20T15:34:35.939Z,8.95
2023-04-20T15:35:24.444Z,8.91
2023-04-20T15:37:17.772Z,8.83
2023-04-20T15:38:17.708Z,8.84
2023-04-20T15:40:29.007Z,8.80
2023-04-20T15:43:17.430Z,8.76
2023-04-20T15:49:16.210Z,8.76
2023-04-20T15:51:01.497Z,8.79
2023-04-20T15:52:02.382Z,8.76
2023-04-20T15:53:06.054Z,8.77
2023-04-20T15:54:09.693Z,8.73
2023-04-20T15:57:16.437Z,8.76
2023-04-20T15:58:28.424Z,8.74
2023-04-20T15:59:08.486Z,8.73
2023-04-20T16:00:36.030Z,8.70
2023-04-20T16:01:07.378Z,8.68
2023-04-20T16:02:40.867Z,8.66
2023-04-20T16:03:50.405Z,8.68
2023-04-20T16:04:08.528Z,8.66
2023-04-20T16:06:48.523Z,8.66
2023-04-20T16:07:56.546Z,8.66
2023-04-20T16:09:09.484Z,8.65
2023-04-20T16:09:40.534Z,8.70
2023-04-20T16:10:50.100Z,8.66
2023-04-20T16:12:45.881Z,8.63
2023-04-20T16:13:56.279Z,8.61
2023-04-20T16:14:34.454Z,8.58
2023-04-20T16:15:35.513Z,8.58
2023-04-20T16:17:07.859Z,8.62
2023-04-20T16:17:45.888Z,8.62
2023-04-20T16:18:34.825Z,8.62
2023-04-20T16:19:34.580Z,8.59
2023-04-20T16:20:34.354Z,8.59
2023-04-20T16:21:35.375Z,8.59
2023-04-20T16:22:34.372Z,8.59
2023-04-20T16:23:35.396Z,8.62
2023-04-20T16:24:35.332Z,8.62
2023-04-20T16:25:44.867Z,8.61
2023-04-20T16:26:51.345Z,8.62
2023-04-20T16:29:26.358Z,8.62
2023-04-20T16:30:58.473Z,8.63
2023-04-20T16:31:34.801Z,8.65
2023-04-20T16:32:20.067Z,8.65
2023-04-20T16:33:21.880Z,8.65
2023-04-20T16:34:23.805Z,8.65
2023-04-20T16:35:20.854Z,8.68
2023-04-20T16:37:36.317Z,8.74
2023-04-20T16:38:46.223Z,8.74
2023-04-20T16:39:31.642Z,8.74
2023-04-20T16:40:31.667Z,8.70
2023-04-20T16:42:42.541Z,8.71
2023-04-20T16:43:43.505Z,8.70
2023-04-20T16:44:43.503Z,8.73
2023-04-20T16:45:43.515Z,8.73
2023-04-20T16:46:43.597Z,8.74
2023-04-20T16:47:44.386Z,8.76
2023-04-20T16:48:49.399Z,8.76
2023-04-20T16:49:51.371Z,8.71
2023-04-20T16:50:50.422Z,8.73
2023-04-20T16:51:45.887Z,8.71
2023-04-20T16:53:57.728Z,8.76
2023-04-20T16:55:26.667Z,8.79
2023-04-20T16:56:01.703Z,8.80
2023-04-20T16:57:10.705Z,8.79
2023-04-20T16:58:22.123Z,8.77
2023-04-20T16:58:54.429Z,8.77
2023-04-20T16:59:55.699Z,8.76
2023-04-20T17:01:02.028Z,8.77
2023-04-20T17:02:12.894Z,8.76
2023-04-20T17:02:54.472Z,8.77
2023-04-20T17:03:54.583Z,8.77
2023-04-20T17:05:16.222Z,8.79
2023-04-20T17:06:03.188Z,8.79
2023-04-20T17:07:06.669Z,8.76
2023-04-20T17:08:15.703Z,8.76
2023-04-20T17:09:09.630Z,8.73
2023-04-20T17:10:10.712Z,8.74
2023-04-20T17:11:17.185Z,8.74
2023-04-20T17:11:56.676Z,8.73
2023-04-20T17:12:58.625Z,8.71
2023-04-20T17:14:23.130Z,8.68
2023-04-20T17:14:54.210Z,8.68
2023-04-20T17:15:59.762Z,8.68
2023-04-20T17:16:55.807Z,8.68
2023-04-20T17:19:37.388Z,8.66
2023-04-20T17:20:50.914Z,8.65
2023-04-20T17:21:14.915Z,8.61
2023-04-20T17:22:25.307Z,8.61
2023-04-20T17:23:10.719Z,8.59
2023-04-20T17:24:10.963Z,8.56
2023-04-20T17:25:10.718Z,8.56
2023-04-20T17:26:10.633Z,8.55
2023-04-20T17:27:10.618Z,8.56
2023-04-20T17:28:10.580Z,8.59
2023-04-20T17:29:21.369Z,8.58
2023-04-20T17:30:11.169Z,8.59
2023-04-20T17:31:13.933Z,8.63
2023-04-20T17:32:13.289Z,8.62
2023-04-20T17:33:25.937Z,8.61
2023-04-20T17:34:14.885Z,8.62
2023-04-20T17:35:10.628Z,8.61
2023-04-20T17:36:11.296Z,8.58
2023-04-20T17:37:11.403Z,8.58
2023-04-20T17:38:19.392Z,8.61
2023-04-20T17:39:10.494Z,8.62
2023-04-20T17:40:10.496Z,8.63
2023-04-20T17:41:10.461Z,8.63
2023-04-20T17:42:10.418Z,8.62
2023-04-20T17:43:10.428Z,8.63
2023-04-20T17:44:12.189Z,8.62
2023-04-20T17:45:10.391Z,8.63
2023-04-20T17:46:41.916Z,8.68
2023-04-20T17:47:33.887Z,8.68
2023-04-20T17:48:25.892Z,8.68
2023-04-20T17:49:12.452Z,8.65
2023-04-20T17:50:29.377Z,8.63
2023-04-20T17:51:10.291Z,8.62
2023-04-20T17:52:10.263Z,8.59
2023-04-20T17:53:10.271Z,8.58
2023-04-20T17:54:25.382Z,8.58
2023-04-20T18:00:07.968Z,8.59
2023-04-20T18:01:09.023Z,8.55
2023-04-20T18:02:09.164Z,8.53
2023-04-20T18:03:09.382Z,8.48
2023-04-20T18:04:09.418Z,8.48
2023-04-20T18:05:09.009Z,8.47
2023-04-20T18:06:08.898Z,8.48
2023-04-20T18:07:09.691Z,8.48
2023-04-20T18:08:08.890Z,8.45
2023-04-20T18:09:08.863Z,8.41
2023-04-20T18:10:08.922Z,8.38
2023-04-20T18:11:08.866Z,8.37
2023-04-20T18:12:08.856Z,8.34
2023-04-20T18:13:08.863Z,8.29
2023-04-20T18:14:08.856Z,8.26
2023-04-20T18:15:23.650Z,8.22
2023-04-20T18:16:46.689Z,8.19
2023-04-20T18:17:20.664Z,8.19
2023-04-20T18:18:08.805Z,8.18
2023-04-20T18:19:09.568Z,8.16
2023-04-20T18:20:08.804Z,8.16
2023-04-20T18:21:09.670Z,8.15
2023-04-20T18:22:08.762Z,8.16